Time;durP1;ratioP1;P1;durP2;ratioP2;P2;SDS_P1;SDS_P2;PMS_P1;PMS_P2;Temp;Humidity;BMP_temperature;BMP_pressure;BME280_temperature;BME280_humidity;BME280_pressure;Samples;Min_cycle;Max_cycle;Signal;HPM_P1;HPM_P2
2022/05/27 00:00:48;;;;;;;;;;;13.40;99.90;;;;;;5014823;28;19971;-72
2022/05/27 00:03:14;;;;;;;;;;;13.40;99.90;;;;;;5013166;28;20010;-72
2022/05/27 00:05:40;;;;;;;;;;;13.30;99.90;;;;;;5012982;28;19925;-72
2022/05/27 00:08:06;;;;;;;;;;;13.30;99.90;;;;;;5014559;28;19931;-72
2022/05/27 00:10:32;;;;;;;;;;;13.20;99.90;;;;;;5015274;28;19925;-72
2022/05/27 00:12:57;;;;;;;;;;;13.10;99.90;;;;;;5013853;28;20019;-71
2022/05/27 00:15:23;;;;;;;;;;;13.10;99.90;;;;;;5014135;28;19932;-72
2022/05/27 00:17:48;;;;;;;;;;;13.20;99.90;;;;;;5011902;28;19929;-72
2022/05/27 00:20:14;;;;;;;;;;;13.10;99.90;;;;;;5005367;28;20347;-72
2022/05/27 00:22:39;;;;;;;;;;;13.10;99.90;;;;;;5013656;28;19925;-71
2022/05/27 00:25:05;;;;;;;;;;;13.00;99.90;;;;;;5013159;28;19929;-71
2022/05/27 00:27:31;;;;;;;;;;;13.00;99.90;;;;;;4998550;28;19925;-72
2022/05/27 00:29:56;;;;;;;;;;;12.90;99.90;;;;;;5009964;28;20016;-71
2022/05/27 00:32:22;;;;;;;;;;;12.90;99.90;;;;;;5014349;28;19944;-71
2022/05/27 00:34:47;;;;;;;;;;;12.90;99.90;;;;;;5014268;28;20366;-72
2022/05/27 00:37:14;;;;;;;;;;;12.80;99.90;;;;;;5013359;28;19926;-72
2022/05/27 00:39:39;;;;;;;;;;;12.70;99.90;;;;;;5015016;28;19925;-72
2022/05/27 00:42:05;;;;;;;;;;;12.60;99.90;;;;;;5013522;28;19991;-72
2022/05/27 00:44:30;;;;;;;;;;;12.60;99.90;;;;;;5007943;28;19925;-72
2022/05/27 00:47:01;;;;;;;;;;;12.50;99.90;;;;;;4993859;28;19972;-72
2022/05/27 00:49:27;;;;;;;;;;;12.50;99.90;;;;;;4993541;28;19926;-72
2022/05/27 00:52:07;;;;;;;;;;;12.40;99.90;;;;;;4994963;28;19987;-72
2022/05/27 00:54:33;;;;;;;;;;;12.40;99.90;;;;;;4998442;28;19940;-71
2022/05/27 00:57:01;;;;;;;;;;;12.40;99.90;;;;;;5012438;28;19921;-71
2022/05/27 00:59:32;;;;;;;;;;;12.40;99.90;;;;;;5012230;28;19953;-72
2022/05/27 01:01:58;;;;;;;;;;;12.30;99.90;;;;;;5013039;28;19960;-72
2022/05/27 01:04:23;;;;;;;;;;;12.30;99.90;;;;;;5011647;28;19921;-72
2022/05/27 01:06:49;;;;;;;;;;;12.30;99.90;;;;;;4993556;28;19926;-72
2022/05/27 01:09:15;;;;;;;;;;;12.30;99.90;;;;;;4992963;28;20289;-72
2022/05/27 01:11:52;;;;;;;;;;;12.30;99.90;;;;;;4993626;28;19976;-72
2022/05/27 01:14:47;;;;;;;;;;;12.30;99.90;;;;;;5004920;28;19925;-72
2022/05/27 01:17:31;;;;;;;;;;;12.30;99.90;;;;;;4983377;28;19929;-72
2022/05/27 01:20:18;;;;;;;;;;;12.30;99.90;;;;;;5012088;28;19925;-71
2022/05/27 01:22:46;;;;;;;;;;;12.20;99.90;;;;;;5012293;28;20403;-72
2022/05/27 01:25:12;;;;;;;;;;;12.20;99.90;;;;;;4997045;28;19926;-72
2022/05/27 01:27:49;;;;;;;;;;;12.10;99.90;;;;;;5011982;28;19932;-72
2022/05/27 01:30:18;;;;;;;;;;;12.10;99.90;;;;;;5011105;28;19930;-72
2022/05/27 01:32:47;;;;;;;;;;;12.00;99.90;;;;;;5002958;28;19926;-72
2022/05/27 01:35:25;;;;;;;;;;;12.00;99.90;;;;;;5012603;28;20004;-72
2022/05/27 01:37:50;;;;;;;;;;;12.00;99.90;;;;;;5012665;28;19926;-72
2022/05/27 01:40:27;;;;;;;;;;;11.90;99.90;;;;;;5012475;28;19925;-71
2022/05/27 01:43:05;;;;;;;;;;;12.00;99.90;;;;;;5014311;28;19972;-71
2022/05/27 01:45:37;;;;;;;;;;;11.90;99.90;;;;;;5011705;28;20323;-72
2022/05/27 01:48:03;;;;;;;;;;;11.90;99.90;;;;;;5004532;28;19933;-72
2022/05/27 01:50:28;;;;;;;;;;;11.90;99.90;;;;;;5005884;28;19926;-72
2022/05/27 01:53:00;;;;;;;;;;;11.90;99.90;;;;;;5013088;28;20032;-72
2022/05/27 01:55:38;;;;;;;;;;;11.90;99.90;;;;;;5013314;28;19968;-72
2022/05/27 01:58:18;;;;;;;;;;;11.80;99.90;;;;;;5004296;28;20336;-72
2022/05/27 02:00:46;;;;;;;;;;;11.80;99.90;;;;;;5011526;28;19971;-71
2022/05/27 02:03:16;;;;;;;;;;;11.70;99.90;;;;;;5010839;28;19966;-72
2022/05/27 02:05:46;;;;;;;;;;;11.70;99.90;;;;;;5013181;28;19959;-72
2022/05/27 02:08:19;;;;;;;;;;;11.60;99.90;;;;;;5010905;28;19925;-72
2022/05/27 02:10:51;;;;;;;;;;;11.60;99.90;;;;;;5013325;28;19930;-72
2022/05/27 02:13:20;;;;;;;;;;;11.50;99.90;;;;;;5011029;28;19921;-72
2022/05/27 02:15:47;;;;;;;;;;;11.50;99.90;;;;;;5011458;28;19936;-72
2022/05/27 02:18:19;;;;;;;;;;;11.50;99.90;;;;;;5007022;28;19922;-71
2022/05/27 02:20:48;;;;;;;;;;;11.50;99.90;;;;;;5007628;28;19936;-72
2022/05/27 02:23:29;;;;;;;;;;;11.40;99.90;;;;;;5011544;28;19922;-72
2022/05/27 02:25:55;;;;;;;;;;;11.40;99.90;;;;;;5013073;28;19925;-72
2022/05/27 02:28:24;;;;;;;;;;;11.30;99.90;;;;;;5012083;28;19926;-72
2022/05/27 02:30:52;;;;;;;;;;;11.30;99.90;;;;;;5011401;28;20362;-72
2022/05/27 02:36:11;;;;;;;;;;;11.30;99.90;;;;;;5003764;28;19936;-72
2022/05/27 02:38:36;;;;;;;;;;;11.30;99.90;;;;;;5011496;28;19925;-72
2022/05/27 02:41:17;;;;;;;;;;;11.20;99.90;;;;;;5011172;28;20433;-72
2022/05/27 02:43:55;;;;;;;;;;;11.20;99.90;;;;;;5010921;28;19992;-72
2022/05/27 02:46:40;;;;;;;;;;;11.20;99.90;;;;;;5011317;28;19991;-72
2022/05/27 02:49:12;;;;;;;;;;;11.20;99.90;;;;;;5006383;28;20395;-72
2022/05/27 02:51:40;;;;;;;;;;;11.20;99.90;;;;;;5010987;28;19925;-72
2022/05/27 02:54:29;;;;;;;;;;;11.20;99.90;;;;;;5014752;28;19929;-72
2022/05/27 02:56:58;;;;;;;;;;;11.20;99.90;;;;;;5014308;28;19933;-72
2022/05/27 02:59:24;;;;;;;;;;;11.30;99.90;;;;;;5016863;28;19932;-72
2022/05/27 03:01:49;;;;;;;;;;;11.20;99.90;;;;;;5015456;28;19925;-72
2022/05/27 03:04:16;;;;;;;;;;;11.10;99.90;;;;;;5003728;28;20389;-71
2022/05/27 03:07:00;;;;;;;;;;;11.10;99.90;;;;;;5011099;28;20400;-72
2022/05/27 03:09:45;;;;;;;;;;;11.10;99.90;;;;;;5014104;28;20444;-72
2022/05/27 03:12:19;;;;;;;;;;;11.10;99.90;;;;;;5014054;28;19925;-72
2022/05/27 03:14:55;;;;;;;;;;;11.00;99.90;;;;;;5001967;28;19926;-72
2022/05/27 03:17:46;;;;;;;;;;;11.00;99.90;;;;;;5015244;28;20044;-71
2022/05/27 03:20:11;;;;;;;;;;;11.00;99.90;;;;;;5014246;28;19932;-71
2022/05/27 03:22:40;;;;;;;;;;;11.00;99.90;;;;;;5014582;28;20024;-71
2022/05/27 03:25:27;;;;;;;;;;;11.00;99.90;;;;;;5014061;28;19933;-71
2022/05/27 03:27:53;;;;;;;;;;;11.00;99.90;;;;;;5015963;28;19936;-72
2022/05/27 03:30:20;;;;;;;;;;;11.00;99.90;;;;;;5003300;28;19933;-71
2022/05/27 03:32:56;;;;;;;;;;;11.00;99.90;;;;;;5010334;28;19937;-72
2022/05/27 03:35:30;;;;;;;;;;;10.90;99.90;;;;;;5013689;28;19925;-71
2022/05/27 03:38:12;;;;;;;;;;;10.90;99.90;;;;;;5015104;28;19926;-71
2022/05/27 03:40:38;;;;;;;;;;;10.90;99.90;;;;;;5015537;28;20276;-72
2022/05/27 03:43:04;;;;;;;;;;;11.90;99.90;;;;;;5014882;28;19932;-71
2022/05/27 03:45:29;;;;;;;;;;;11.00;99.90;;;;;;5013916;28;19972;-72
2022/05/27 03:47:55;;;;;;;;;;;11.00;99.90;;;;;;5015237;28;20369;-71
2022/05/27 03:50:22;;;;;;;;;;;11.10;99.90;;;;;;5013858;28;19925;-71
2022/05/27 03:52:49;;;;;;;;;;;11.10;99.90;;;;;;5014910;28;20344;-72
2022/05/27 03:55:16;;;;;;;;;;;11.10;99.90;;;;;;5013631;28;20103;-72
2022/05/27 03:57:42;;;;;;;;;;;11.10;99.90;;;;;;5015153;28;20361;-72
2022/05/27 04:00:08;;;;;;;;;;;11.20;99.90;;;;;;5002142;28;19925;-71
2022/05/27 04:02:33;;;;;;;;;;;11.20;99.90;;;;;;5023009;28;20036;-71
2022/05/27 04:04:59;;;;;;;;;;;11.20;99.90;;;;;;5020655;28;20044;-71
2022/05/27 04:07:24;;;;;;;;;;;11.20;99.90;;;;;;5025651;28;19952;-72
2022/05/27 04:09:50;;;;;;;;;;;11.30;99.90;;;;;;5019496;28;20400;-71
2022/05/27 04:12:16;;;;;;;;;;;11.40;99.90;;;;;;5014881;28;19929;-71
2022/05/27 04:14:41;;;;;;;;;;;11.40;99.90;;;;;;5012398;28;20478;-72
2022/05/27 04:19:51;;;;;;;;;;;11.40;99.90;;;;;;5014317;28;20373;-71
2022/05/27 04:22:16;;;;;;;;;;;11.50;99.90;;;;;;5014398;28;19929;-71
2022/05/27 04:24:42;;;;;;;;;;;11.60;99.90;;;;;;5002620;28;20020;-71
2022/05/27 04:27:08;;;;;;;;;;;11.60;99.90;;;;;;4993023;28;19926;-71
2022/05/27 04:29:37;;;;;;;;;;;11.60;99.90;;;;;;4998095;28;19977;-72
2022/05/27 04:32:03;;;;;;;;;;;11.70;99.90;;;;;;5013397;28;19926;-72
2022/05/27 04:34:28;;;;;;;;;;;11.70;99.90;;;;;;5011295;28;19930;-71
2022/05/27 04:36:53;;;;;;;;;;;11.70;99.90;;;;;;5013305;28;19925;-71
2022/05/27 04:39:19;;;;;;;;;;;11.80;99.90;;;;;;5012842;28;19936;-72
2022/05/27 04:41:46;;;;;;;;;;;11.90;99.90;;;;;;5012898;28;19930;-70
2022/05/27 04:44:12;;;;;;;;;;;11.90;99.90;;;;;;5012459;28;19975;-70
2022/05/27 04:46:38;;;;;;;;;;;12.00;99.90;;;;;;5012689;28;19925;-71
2022/05/27 04:49:03;;;;;;;;;;;12.00;99.90;;;;;;4999764;28;19931;-71
2022/05/27 04:51:29;;;;;;;;;;;12.00;99.90;;;;;;5014333;28;19932;-74
2022/05/27 04:53:54;;;;;;;;;;;12.00;99.90;;;;;;5014879;28;20384;-75
2022/05/27 04:56:21;;;;;;;;;;;12.00;99.90;;;;;;5012189;28;20259;-73
2022/05/27 04:58:47;;;;;;;;;;;12.00;99.90;;;;;;5012912;28;20404;-69
2022/05/27 05:01:12;;;;;;;;;;;11.90;99.90;;;;;;5013821;28;19927;-70
2022/05/27 05:03:38;;;;;;;;;;;11.90;99.90;;;;;;5012016;28;19976;-70
2022/05/27 05:06:03;;;;;;;;;;;12.00;99.90;;;;;;5012996;28;19933;-71
2022/05/27 05:08:33;;;;;;;;;;;12.00;99.90;;;;;;5013744;28;19925;-71
2022/05/27 05:11:00;;;;;;;;;;;12.00;99.90;;;;;;5012277;28;19949;-71
2022/05/27 05:13:25;;;;;;;;;;;12.10;99.90;;;;;;5010902;28;20285;-71
2022/05/27 05:15:51;;;;;;;;;;;12.20;99.90;;;;;;5012235;28;19926;-71
2022/05/27 05:18:16;;;;;;;;;;;12.30;99.90;;;;;;5011360;28;19933;-71
2022/05/27 05:20:42;;;;;;;;;;;12.30;99.90;;;;;;4999902;28;19948;-71
2022/05/27 05:23:07;;;;;;;;;;;12.30;99.90;;;;;;4993179;28;19925;-71
2022/05/27 05:25:33;;;;;;;;;;;12.40;99.90;;;;;;4992935;28;19988;-71
2022/05/27 05:27:59;;;;;;;;;;;12.40;99.90;;;;;;4992391;28;19926;-70
2022/05/27 05:30:25;;;;;;;;;;;12.40;99.90;;;;;;4992614;28;19976;-71
2022/05/27 05:32:51;;;;;;;;;;;12.50;99.90;;;;;;4992517;28;19988;-71
2022/05/27 05:35:19;;;;;;;;;;;12.50;99.90;;;;;;4992769;28;19926;-71
2022/05/27 05:37:44;;;;;;;;;;;12.50;99.90;;;;;;4994210;28;19926;-70
2022/05/27 05:40:11;;;;;;;;;;;12.60;99.90;;;;;;4991919;28;19932;-70
2022/05/27 05:42:38;;;;;;;;;;;12.70;99.90;;;;;;4993545;28;19957;-71
2022/05/27 05:45:04;;;;;;;;;;;12.70;99.90;;;;;;4992561;28;20692;-71
2022/05/27 05:47:30;;;;;;;;;;;12.70;99.90;;;;;;4993773;28;19926;-71
2022/05/27 05:49:55;;;;;;;;;;;12.70;99.90;;;;;;4993699;28;20325;-71
2022/05/27 05:52:21;;;;;;;;;;;12.70;99.90;;;;;;4996911;28;19976;-71
2022/05/27 05:54:46;;;;;;;;;;;12.80;99.90;;;;;;5012850;28;19940;-71
2022/05/27 05:57:12;;;;;;;;;;;12.80;99.90;;;;;;5012930;28;19925;-70
2022/05/27 05:59:38;;;;;;;;;;;12.70;99.90;;;;;;5010930;28;20407;-71
2022/05/27 06:02:04;;;;;;;;;;;12.70;99.90;;;;;;5010183;28;19925;-70
2022/05/27 06:04:30;;;;;;;;;;;12.80;99.90;;;;;;5011525;28;19925;-71
2022/05/27 06:06:55;;;;;;;;;;;12.70;99.90;;;;;;5012374;28;20014;-71
2022/05/27 06:09:25;;;;;;;;;;;12.70;99.90;;;;;;5006454;28;20334;-71
2022/05/27 06:11:55;;;;;;;;;;;12.70;99.90;;;;;;4992405;28;20020;-71
2022/05/27 06:14:21;;;;;;;;;;;12.70;99.90;;;;;;4992049;28;19926;-71
2022/05/27 06:16:46;;;;;;;;;;;12.70;99.90;;;;;;4992163;28;20413;-71
2022/05/27 06:19:12;;;;;;;;;;;12.80;99.90;;;;;;4992964;28;19925;-71
2022/05/27 06:21:37;;;;;;;;;;;12.80;99.90;;;;;;4999540;28;19952;-71
2022/05/27 06:24:03;;;;;;;;;;;13.00;99.90;;;;;;5016839;28;19925;-70
2022/05/27 06:26:29;;;;;;;;;;;13.00;99.90;;;;;;5015494;28;19996;-71
2022/05/27 06:34:25;;;;;;;;;;;13.10;99.90;;;;;;5011769;28;19925;-71
2022/05/27 06:36:53;;;;;;;;;;;13.10;99.90;;;;;;5006678;28;20401;-70
2022/05/27 06:39:19;;;;;;;;;;;13.10;99.90;;;;;;5016926;28;19929;-70
2022/05/27 06:41:48;;;;;;;;;;;13.20;99.90;;;;;;5005653;28;19930;-70
2022/05/27 06:44:13;;;;;;;;;;;13.10;99.90;;;;;;5008407;28;19933;-70
2022/05/27 06:46:39;;;;;;;;;;;13.20;99.90;;;;;;5015885;28;19925;-70
2022/05/27 06:49:05;;;;;;;;;;;13.20;99.90;;;;;;5009956;28;19926;-70
2022/05/27 06:51:31;;;;;;;;;;;13.20;99.90;;;;;;5015413;28;19936;-70
2022/05/27 06:53:57;;;;;;;;;;;13.20;99.90;;;;;;5015930;28;19925;-69
2022/05/27 06:56:22;;;;;;;;;;;13.40;99.90;;;;;;5014831;28;19932;-70
2022/05/27 06:58:48;;;;;;;;;;;13.60;99.90;;;;;;5011039;28;19925;-70
2022/05/27 07:01:13;;;;;;;;;;;13.70;99.90;;;;;;5019420;28;19925;-71
2022/05/27 07:03:39;;;;;;;;;;;13.70;99.90;;;;;;5012850;28;19960;-70
2022/05/27 07:06:08;;;;;;;;;;;13.70;99.90;;;;;;5016207;28;19929;-71
2022/05/27 07:08:34;;;;;;;;;;;13.70;99.90;;;;;;5010749;28;19930;-69
2022/05/27 07:11:00;;;;;;;;;;;13.60;99.90;;;;;;5009115;28;19984;-70
2022/05/27 07:13:25;;;;;;;;;;;13.50;99.90;;;;;;5007893;28;19969;-70
2022/05/27 07:15:51;;;;;;;;;;;13.40;99.90;;;;;;5012910;28;19976;-69
2022/05/27 07:18:17;;;;;;;;;;;13.50;99.90;;;;;;5014991;28;19972;-70
2022/05/27 07:20:44;;;;;;;;;;;13.60;99.90;;;;;;5020417;28;19967;-70
2022/05/27 07:23:10;;;;;;;;;;;14.40;99.90;;;;;;5012549;28;19925;-70
2022/05/27 07:25:35;;;;;;;;;;;15.00;99.90;;;;;;5019260;28;20331;-70
2022/05/27 07:28:06;;;;;;;;;;;15.60;99.90;;;;;;5016603;28;19940;-70
2022/05/27 07:30:32;;;;;;;;;;;16.20;99.90;;;;;;5019148;28;19976;-70
2022/05/27 07:32:57;;;;;;;;;;;16.80;99.90;;;;;;5016446;28;19925;-69
2022/05/27 07:35:23;;;;;;;;;;;17.40;99.30;;;;;;5019930;28;20027;-70
2022/05/27 07:37:48;;;;;;;;;;;17.50;97.90;;;;;;5015895;28;19929;-69
2022/05/27 07:40:14;;;;;;;;;;;17.20;98.40;;;;;;5023359;28;19929;-70
2022/05/27 07:42:40;;;;;;;;;;;17.10;98.30;;;;;;5014129;28;19926;-69
2022/05/27 07:45:06;;;;;;;;;;;16.60;98.20;;;;;;5011677;28;19933;-70
2022/05/27 07:47:32;;;;;;;;;;;16.20;98.90;;;;;;5020528;28;19925;-70
2022/05/27 07:49:57;;;;;;;;;;;16.60;99.40;;;;;;5025956;28;19925;-70
2022/05/27 07:52:23;;;;;;;;;;;17.50;98.80;;;;;;5024465;28;20004;-71
2022/05/27 07:54:50;;;;;;;;;;;18.20;97.10;;;;;;5022792;28;19933;-70
2022/05/27 07:57:25;;;;;;;;;;;18.70;95.20;;;;;;5021737;28;19925;-70
2022/05/27 07:59:54;;;;;;;;;;;19.10;95.60;;;;;;5021190;28;19929;-70
2022/05/27 08:02:23;;;;;;;;;;;19.40;94.90;;;;;;5021497;28;20393;-69
2022/05/27 08:04:48;;;;;;;;;;;19.50;94.50;;;;;;5020999;28;20377;-70
2022/05/27 08:07:14;;;;;;;;;;;19.20;94.60;;;;;;5025216;28;20023;-71
2022/05/27 08:09:39;;;;;;;;;;;19.10;95.30;;;;;;5022574;28;19933;-77
2022/05/27 08:12:06;;;;;;;;;;;19.30;94.80;;;;;;5023166;28;20270;-72
2022/05/27 08:14:31;;;;;;;;;;;19.50;93.90;;;;;;5013953;28;20297;-77
2022/05/27 08:16:57;;;;;;;;;;;19.90;94.60;;;;;;5013654;28;19926;-70
2022/05/27 08:19:26;;;;;;;;;;;20.20;94.10;;;;;;5032333;28;19921;-78
2022/05/27 08:21:52;;;;;;;;;;;19.60;93.80;;;;;;5023455;28;20293;-84
2022/05/27 08:24:17;;;;;;;;;;;19.70;94.20;;;;;;5006867;28;19928;-79
2022/05/27 08:26:43;;;;;;;;;;;19.80;93.90;;;;;;5022373;28;19968;-74
2022/05/27 08:29:09;;;;;;;;;;;19.70;94.10;;;;;;5016606;28;20023;-72
2022/05/27 08:31:35;;;;;;;;;;;19.10;93.90;;;;;;5012608;28;19980;-72
2022/05/27 08:39:34;;;;;;;;;;;17.80;95.10;;;;;;5020815;28;19926;-72
2022/05/27 08:42:03;;;;;;;;;;;17.80;95.90;;;;;;5022438;28;19933;-71
2022/05/27 08:44:48;;;;;;;;;;;17.90;95.90;;;;;;5020324;28;19932;-73
2022/05/27 08:47:18;;;;;;;;;;;18.60;95.70;;;;;;5019499;28;19925;-69
2022/05/27 08:49:46;;;;;;;;;;;19.30;94.80;;;;;;5019939;28;19932;-70
2022/05/27 08:52:23;;;;;;;;;;;19.70;94.20;;;;;;5009412;28;19985;-70
2022/05/27 08:54:54;;;;;;;;;;;19.90;94.00;;;;;;5014608;28;19925;-71
2022/05/27 09:00:07;;;;;;;;;;;19.80;93.70;;;;;;5019064;28;19926;-70
2022/05/27 09:02:41;;;;;;;;;;;19.70;93.50;;;;;;5020344;28;20487;-71
2022/05/27 09:05:14;;;;;;;;;;;19.50;93.90;;;;;;5006988;28;20012;-70
2022/05/27 09:07:46;;;;;;;;;;;19.70;94.30;;;;;;5013948;28;19932;-71
2022/05/27 09:10:14;;;;;;;;;;;19.60;94.20;;;;;;5012957;28;19929;-70
2022/05/27 09:12:45;;;;;;;;;;;19.30;95.10;;;;;;5011028;28;19925;-72
2022/05/27 09:15:18;;;;;;;;;;;19.30;94.60;;;;;;5005758;28;19932;-71
2022/05/27 09:17:53;;;;;;;;;;;19.40;95.40;;;;;;5005940;28;19941;-71
2022/05/27 09:20:25;;;;;;;;;;;19.20;94.10;;;;;;5017228;28;20443;-72
2022/05/27 09:23:10;;;;;;;;;;;19.40;94.00;;;;;;5011299;28;19965;-72
2022/05/27 09:25:55;;;;;;;;;;;19.30;93.70;;;;;;5014775;28;19945;-70
2022/05/27 09:28:29;;;;;;;;;;;19.40;93.80;;;;;;5014722;28;19929;-70
2022/05/27 09:30:58;;;;;;;;;;;19.20;93.70;;;;;;5018083;28;19929;-70
2022/05/27 09:33:26;;;;;;;;;;;19.00;94.30;;;;;;5014958;28;19929;-69
2022/05/27 09:36:01;;;;;;;;;;;18.80;94.30;;;;;;5017845;28;20016;-69
2022/05/27 09:38:28;;;;;;;;;;;18.40;95.00;;;;;;5013538;28;19932;-70
2022/05/27 09:40:55;;;;;;;;;;;18.60;95.40;;;;;;5018410;28;19936;-70
2022/05/27 09:43:39;;;;;;;;;;;18.60;95.70;;;;;;5014956;28;19935;-69
2022/05/27 09:46:09;;;;;;;;;;;18.40;95.30;;;;;;5005900;28;20376;-71
2022/05/27 09:48:34;;;;;;;;;;;18.50;96.10;;;;;;5004767;28;19933;-69
2022/05/27 09:51:01;;;;;;;;;;;18.50;96.00;;;;;;5012841;28;19929;-70
2022/05/27 09:53:31;;;;;;;;;;;17.90;95.70;;;;;;5012275;28;20732;-70
2022/05/27 09:56:02;;;;;;;;;;;18.20;95.50;;;;;;5017077;28;19929;-71
2022/05/27 09:58:29;;;;;;;;;;;18.10;95.20;;;;;;5007142;28;19929;-74
2022/05/27 10:00:55;;;;;;;;;;;18.40;96.20;;;;;;4995606;28;20321;-73
2022/05/27 10:03:28;;;;;;;;;;;18.60;95.60;;;;;;4997326;28;19938;-71
2022/05/27 10:05:57;;;;;;;;;;;18.50;96.10;;;;;;5002946;28;19933;-73
2022/05/27 10:08:35;;;;;;;;;;;18.70;95.80;;;;;;5000315;28;19933;-72
2022/05/27 10:11:16;;;;;;;;;;;19.10;95.50;;;;;;5002775;28;19929;-75
2022/05/27 10:13:43;;;;;;;;;;;19.70;94.80;;;;;;5003229;28;19994;-68
2022/05/27 10:16:11;;;;;;;;;;;19.60;94.50;;;;;;5007702;28;19926;-77
2022/05/27 10:18:37;;;;;;;;;;;19.70;93.80;;;;;;5010595;28;20388;-75
2022/05/27 10:21:16;;;;;;;;;;;19.20;93.40;;;;;;4998820;28;19926;-69
2022/05/27 10:23:43;;;;;;;;;;;18.90;94.30;;;;;;5012140;28;20015;-70
2022/05/27 10:26:18;;;;;;;;;;;19.00;94.60;;;;;;5000156;28;19933;-74
2022/05/27 10:28:43;;;;;;;;;;;19.10;93.70;;;;;;5001837;28;20385;-70
2022/05/27 10:31:16;;;;;;;;;;;19.00;93.50;;;;;;5000109;28;20075;-77
2022/05/27 10:33:43;;;;;;;;;;;18.70;94.60;;;;;;4990460;28;20009;-74
2022/05/27 10:36:21;;;;;;;;;;;18.60;95.30;;;;;;4996159;28;19925;-71
2022/05/27 10:38:56;;;;;;;;;;;18.70;95.10;;;;;;5001733;28;19937;-73
2022/05/27 10:41:31;;;;;;;;;;;18.60;95.10;;;;;;5028358;28;19932;-70
2022/05/27 10:44:14;;;;;;;;;;;18.50;95.10;;;;;;5013999;28;20373;-71
2022/05/27 10:46:53;;;;;;;;;;;18.30;94.90;;;;;;5009739;28;19936;-72
2022/05/27 10:49:30;;;;;;;;;;;18.40;95.00;;;;;;5006361;28;19934;-72
2022/05/27 10:51:58;;;;;;;;;;;19.00;95.10;;;;;;5006673;28;20384;-71
2022/05/27 10:54:27;;;;;;;;;;;19.00;94.30;;;;;;4994085;28;20044;-70
2022/05/27 11:02:37;;;;;;;;;;;19.60;93.90;;;;;;5006520;28;19929;-73
2022/05/27 11:05:11;;;;;;;;;;;19.10;93.70;;;;;;5021157;28;19933;-73
2022/05/27 11:08:00;;;;;;;;;;;18.60;94.70;;;;;;5008600;28;19972;-73
2022/05/27 11:10:36;;;;;;;;;;;18.60;95.30;;;;;;5017536;28;19933;-73
2022/05/27 11:16:19;;;;;;;;;;;18.30;95.30;;;;;;5020976;28;19932;-76
2022/05/27 11:19:03;;;;;;;;;;;18.10;95.90;;;;;;5024250;28;20347;-74
2022/05/27 11:21:32;;;;;;;;;;;18.20;96.00;;;;;;5016613;28;19925;-73
2022/05/27 11:23:58;;;;;;;;;;;18.30;95.00;;;;;;5022653;28;19925;-72
2022/05/27 11:26:32;;;;;;;;;;;18.50;95.90;;;;;;5026300;28;19971;-72
2022/05/27 11:29:00;;;;;;;;;;;17.90;96.00;;;;;;5021075;28;19925;-72
2022/05/27 11:31:46;;;;;;;;;;;17.80;96.00;;;;;;5018738;28;19932;-72
2022/05/27 11:34:25;;;;;;;;;;;17.80;95.40;;;;;;5006105;28;19925;-69
2022/05/27 11:37:07;;;;;;;;;;;17.70;96.60;;;;;;5018045;28;19931;-68
2022/05/27 11:39:33;;;;;;;;;;;18.00;96.70;;;;;;5019446;28;19934;-68
2022/05/27 11:42:07;;;;;;;;;;;18.00;96.30;;;;;;5020169;28;19929;-71
2022/05/27 11:44:36;;;;;;;;;;;17.90;96.30;;;;;;5018525;28;19925;-72
2022/05/27 11:47:08;;;;;;;;;;;17.90;96.40;;;;;;5021559;28;19925;-71
2022/05/27 11:49:35;;;;;;;;;;;18.10;96.30;;;;;;5019132;28;20416;-71
2022/05/27 11:52:08;;;;;;;;;;;17.90;96.10;;;;;;5014065;28;19964;-74
2022/05/27 11:54:51;;;;;;;;;;;17.90;96.80;;;;;;5016332;28;19925;-74
2022/05/27 11:57:23;;;;;;;;;;;18.00;96.90;;;;;;5013620;28;19925;-74
2022/05/27 11:59:54;;;;;;;;;;;18.00;96.60;;;;;;5018981;28;20304;-75
2022/05/27 12:02:58;;;;;;;;;;;18.00;96.50;;;;;;5020695;28;19925;-76
2022/05/27 12:05:27;;;;;;;;;;;17.90;96.30;;;;;;4955438;28;20354;-76
2022/05/27 12:08:05;;;;;;;;;;;17.70;96.70;;;;;;4977875;28;19930;-75
2022/05/27 12:10:52;;;;;;;;;;;17.70;97.00;;;;;;4986080;28;19929;-73
2022/05/27 12:13:17;;;;;;;;;;;18.10;96.40;;;;;;5017456;28;19932;-77
2022/05/27 12:15:57;;;;;;;;;;;18.30;97.10;;;;;;5012068;28;19925;-75
2022/05/27 12:18:43;;;;;;;;;;;18.40;96.60;;;;;;5001377;28;19926;-76
2022/05/27 12:21:20;;;;;;;;;;;18.20;96.50;;;;;;5010820;28;20002;-75
2022/05/27 12:23:58;;;;;;;;;;;18.30;96.60;;;;;;5013126;28;19933;-75
2022/05/27 12:26:32;;;;;;;;;;;18.30;96.70;;;;;;5011451;28;19926;-73
2022/05/27 12:28:59;;;;;;;;;;;18.30;96.50;;;;;;5015746;28;19937;-74
2022/05/27 12:31:24;;;;;;;;;;;18.50;95.60;;;;;;5033350;28;20361;-72
2022/05/27 12:33:50;;;;;;;;;;;17.80;96.00;;;;;;5033428;28;19932;-74
2022/05/27 12:36:21;;;;;;;;;;;17.30;96.50;;;;;;5020403;28;19933;-75
2022/05/27 12:38:48;;;;;;;;;;;17.20;97.10;;;;;;5012829;28;19926;-72
2022/05/27 12:41:34;;;;;;;;;;;16.90;97.20;;;;;;5012274;28;20369;-72
2022/05/27 12:44:01;;;;;;;;;;;16.80;97.70;;;;;;5012544;28;19925;-70
2022/05/27 12:46:32;;;;;;;;;;;17.10;97.60;;;;;;5013170;28;19933;-71
2022/05/27 12:49:16;;;;;;;;;;;16.90;97.40;;;;;;5012820;28;20288;-71
2022/05/27 12:51:44;;;;;;;;;;;17.20;97.30;;;;;;5003077;28;19968;-72
2022/05/27 12:54:10;;;;;;;;;;;17.20;97.60;;;;;;4993380;28;19968;-70
2022/05/27 13:02:14;;;;;;;;;;;17.40;97.80;;;;;;5008601;28;20330;-71
2022/05/27 13:04:48;;;;;;;;;;;17.10;97.60;;;;;;5004993;28;19929;-73
2022/05/27 13:07:15;;;;;;;;;;;17.50;97.70;;;;;;5012924;28;19972;-72
2022/05/27 13:09:42;;;;;;;;;;;17.70;97.30;;;;;;5012496;28;19948;-72
2022/05/27 13:12:10;;;;;;;;;;;17.60;97.20;;;;;;5012146;28;20333;-71
2022/05/27 13:14:46;;;;;;;;;;;17.50;98.30;;;;;;5011324;28;19937;-72
2022/05/27 13:17:32;;;;;;;;;;;17.60;98.30;;;;;;5007812;28;19922;-72
2022/05/27 13:20:07;;;;;;;;;;;17.80;98.00;;;;;;5020534;28;19925;-70
2022/05/27 13:22:37;;;;;;;;;;;17.90;97.40;;;;;;5019248;28;19964;-71
2022/05/27 13:25:21;;;;;;;;;;;17.80;97.70;;;;;;5016900;28;19925;-72
2022/05/27 13:27:47;;;;;;;;;;;17.70;97.00;;;;;;5012195;28;20296;-71
2022/05/27 13:30:14;;;;;;;;;;;17.20;97.10;;;;;;5011445;28;19926;-70
2022/05/27 13:32:49;;;;;;;;;;;17.10;97.40;;;;;;5013324;28;20369;-73
2022/05/27 13:35:15;;;;;;;;;;;17.20;97.70;;;;;;5011661;28;19933;-72
2022/05/27 13:37:51;;;;;;;;;;;17.30;97.70;;;;;;5001482;28;19933;-75
2022/05/27 13:40:29;;;;;;;;;;;17.30;97.60;;;;;;5021505;28;19929;-72
2022/05/27 13:43:00;;;;;;;;;;;17.10;97.90;;;;;;5012945;28;19929;-70
2022/05/27 13:45:31;;;;;;;;;;;17.10;97.40;;;;;;5009878;28;19929;-71
2022/05/27 13:48:00;;;;;;;;;;;17.10;97.90;;;;;;5008305;28;19936;-72
2022/05/27 13:50:26;;;;;;;;;;;17.10;97.50;;;;;;5011748;28;19992;-70
2022/05/27 13:52:51;;;;;;;;;;;17.20;97.40;;;;;;4995974;28;19925;-73
2022/05/27 13:55:16;;;;;;;;;;;17.00;97.70;;;;;;5019096;28;19941;-71
2022/05/27 13:57:43;;;;;;;;;;;17.50;98.60;;;;;;5010052;28;19926;-73
2022/05/27 14:00:10;;;;;;;;;;;17.40;97.20;;;;;;5006625;28;20043;-74
2022/05/27 14:02:38;;;;;;;;;;;17.50;97.60;;;;;;5001972;28;19975;-74
2022/05/27 14:05:09;;;;;;;;;;;17.70;98.10;;;;;;5005991;28;19943;-78
2022/05/27 14:07:34;;;;;;;;;;;17.80;97.40;;;;;;5006178;28;19932;-73
2022/05/27 14:10:01;;;;;;;;;;;18.00;97.00;;;;;;5016396;28;20281;-73
2022/05/27 14:12:34;;;;;;;;;;;17.90;96.80;;;;;;5017402;28;19926;-71
2022/05/27 14:15:28;;;;;;;;;;;17.90;97.20;;;;;;5018554;28;20381;-71
2022/05/27 14:17:54;;;;;;;;;;;18.10;97.20;;;;;;5009936;28;20034;-71
2022/05/27 14:20:28;;;;;;;;;;;18.20;96.80;;;;;;5012194;28;20414;-70
2022/05/27 14:22:56;;;;;;;;;;;18.30;96.20;;;;;;5011614;28;19940;-70
2022/05/27 14:25:22;;;;;;;;;;;18.30;96.00;;;;;;5013098;28;19941;-70
2022/05/27 14:27:56;;;;;;;;;;;17.90;96.20;;;;;;5016374;28;19925;-74
2022/05/27 14:30:23;;;;;;;;;;;17.60;96.50;;;;;;5020417;28;19933;-73
2022/05/27 14:32:48;;;;;;;;;;;17.80;97.00;;;;;;5011212;28;19925;-73
2022/05/27 14:35:17;;;;;;;;;;;17.70;96.80;;;;;;5011130;28;19932;-73
2022/05/27 14:37:52;;;;;;;;;;;17.90;97.30;;;;;;5009926;28;19925;-73
2022/05/27 14:40:20;;;;;;;;;;;17.70;96.60;;;;;;5010329;28;19926;-77
2022/05/27 14:42:46;;;;;;;;;;;18.00;96.90;;;;;;5010742;28;19933;-75
2022/05/27 14:45:32;;;;;;;;;;;18.10;97.20;;;;;;5004490;28;19948;-74
2022/05/27 14:47:58;;;;;;;;;;;18.20;97.00;;;;;;5006583;28;20360;-76
2022/05/27 14:50:31;;;;;;;;;;;18.00;96.20;;;;;;5013523;28;19932;-77
2022/05/27 14:52:59;;;;;;;;;;;17.90;96.40;;;;;;5013415;28;19932;-77
2022/05/27 14:55:26;;;;;;;;;;;17.80;96.30;;;;;;5014812;28;19933;-76
2022/05/27 14:57:53;;;;;;;;;;;17.80;96.50;;;;;;5014430;28;19933;-78
2022/05/27 15:00:22;;;;;;;;;;;18.10;96.50;;;;;;5009540;28;19948;-75
2022/05/27 15:02:52;;;;;;;;;;;18.10;95.70;;;;;;5019778;28;20384;-74
2022/05/27 15:05:23;;;;;;;;;;;17.70;96.40;;;;;;5013820;28;19933;-75